Barclay, MD (21607)

7:22 AM EDT on April 24, 2017 (GMT -0400)
Barclay, MD | | Change Station

Elev 62 ft 39.14 °N, 75.81 °W | Updated 7 minutes ago

Overcast
Overcast
50.2 °F
Feels Like 50.2 °F
N
5.3
Wind Variable Wind from NNE

Today
High -- | Low -- °F
--% Chance of Precip.
Yesterday
High -- | Low -- °F
Precip. -- in
Pressure 30.08 in
Visibility 10.0 miles
Clouds Mostly Cloudy 6500 ft
Mostly Cloudy 8000 ft
Dew Point 48 °F
Humidity 92%
Rainfall 0.00 in
Snow Depth Not available.
6:13 AM 7:49 PM
Waning Crescent, 6% visible
METAR KDOV 241058Z AUTO 05010KT 10SM BKN065 BKN080 10/10 A3007 RMK AO2 RAE09DZB09E11 SLP186 P0000 T01030103 $
Pressure 30.08 in
Visibility 10.0 miles
Clouds Mostly Cloudy 6500 ft
Mostly Cloudy 8000 ft
Dew Point 48 °F
Humidity 92%
Rainfall 0.00 in
Snow Depth Not available.
6:13 AM 7:49 PM
Waning Crescent, 6% visible
METAR KDOV 241058Z AUTO 05010KT 10SM BKN065 BKN080 10/10 A3007 RMK AO2 RAE09DZB09E11 SLP186 P0000 T01030103 $

Get Severe Weather Alerts

Thanks for signing up!

Be on the lookout for a verification email in your inbox.

You'll start receiving the daily forecast at 8 AM.

×

10-Day Weather Forecast

Almanac

Astronomy

Apr. 24, 2017 Rise Set
Actual Time
Civil Twilight
Nautical Twilight
Astronomical Twilight
Moon
Length of Visible Light
Length of Day
Tomorrow will be .
, % of the Moon is Illuminated

Today's Extremes

State Highs State Lows

Community

WunderPhotos

WunderBlog® & News

Nearby

Air Quality

  Air Quality AQ Index Pollutant
Not available.

Snow Depth

Station Depth Elevation

Earthquake Activity

City Distance Mag. Time & Date
Minimum magnitude displayed is 2.5.

Coastal Water Temperatures

Place Temperature

Stations

Nearby Weather Stations

Station Location Temp. Windchill Dew Point Humidity Wind Precip. Elev Updated Type
                   

Watches & Warnings

There are currently no watches in effect.